Terminal Aerodrome Forecast
Issued by NWS Charleston, WV

Current Version | Previous Version | Graphics & Text | Print | Product List | Glossary On
Versions: 1 2 3 4 5 6 7 8 9 10 11 12 13 14 15 16 17 18 19 20 21 22 23 24 25
784
FTUS41 KRLX 242340
TAFEKN
TAF
KEKN 242340Z 2500/2524 18006KT P6SM FEW200
     FM250400 19009G17KT P6SM FEW150
     FM251100 21012G20KT 5SM SHRA OVC050
     FM251200 22014G35KT 2SM +SHRA OVC025
     FM251300 25010G23KT 5SM -SHRA OVC025
     FM251400 26012G24KT P6SM OVC035
     FM251900 27014G24KT P6SM OVC030=

USA.gov is the U.S. government's official web portal to all federal, state and local government web resources and services.